createdAt,value
2019-06-20T00:01:05.292Z,19.91
2019-06-20T00:03:38.531Z,19.93
2019-06-20T00:06:11.108Z,19.83
2019-06-20T00:08:44.080Z,19.72
2019-06-20T00:11:17.058Z,19.68
2019-06-20T00:13:49.854Z,19.65
2019-06-20T00:16:23.051Z,19.76
2019-06-20T00:18:55.762Z,19.72
2019-06-20T00:21:28.482Z,19.72
2019-06-20T00:24:02.001Z,19.81
2019-06-20T00:26:34.713Z,19.87
2019-06-20T00:29:07.276Z,19.87
2019-06-20T00:31:40.280Z,19.89
2019-06-20T00:34:12.815Z,19.94
2019-06-20T00:36:45.227Z,20.00
2019-06-20T00:39:17.974Z,19.94
2019-06-20T00:41:50.580Z,19.92
2019-06-20T00:44:23.194Z,19.88
2019-06-20T00:46:56.150Z,19.81
2019-06-20T00:49:28.718Z,19.77
2019-06-20T00:52:01.340Z,19.83
2019-06-20T00:54:34.248Z,19.92
2019-06-20T00:57:06.873Z,19.85
2019-06-20T00:59:39.385Z,19.86
2019-06-20T01:02:13.585Z,19.92
2019-06-20T01:04:46.279Z,19.79
2019-06-20T01:07:18.930Z,19.68
2019-06-20T01:09:52.775Z,19.52
2019-06-20T01:12:25.332Z,19.50
2019-06-20T01:14:57.865Z,19.40
2019-06-20T01:17:31.575Z,19.48
2019-06-20T01:20:04.697Z,19.51
2019-06-20T01:22:37.464Z,19.48
2019-06-20T01:25:10.457Z,19.49
2019-06-20T01:28:02.064Z,19.46
2019-06-20T01:30:34.353Z,19.49
2019-06-20T01:33:06.805Z,19.44
2019-06-20T01:35:40.099Z,19.39
2019-06-20T01:38:12.361Z,19.36
2019-06-20T01:40:44.714Z,19.29
2019-06-20T01:43:16.934Z,19.25
2019-06-20T01:45:49.215Z,19.19
2019-06-20T01:48:20.725Z,19.19
2019-06-20T01:50:53.033Z,19.29
2019-06-20T01:53:25.227Z,19.37
2019-06-20T01:55:57.512Z,19.28
2019-06-20T01:58:29.759Z,19.25
2019-06-20T02:01:02.353Z,19.17
2019-06-20T02:03:39.516Z,19.17
2019-06-20T02:06:16.809Z,19.14
2019-06-20T02:08:54.076Z,19.11
2019-06-20T02:11:31.593Z,19.11
2019-06-20T02:14:08.740Z,19.17
2019-06-20T02:16:46.093Z,19.14
2019-06-20T02:19:18.320Z,19.20
2019-06-20T02:21:50.613Z,19.10
2019-06-20T02:24:23.834Z,19.04
2019-06-20T02:26:56.129Z,18.98
2019-06-20T02:29:28.362Z,18.91
2019-06-20T02:32:01.652Z,18.89
2019-06-20T02:34:33.874Z,18.88
2019-06-20T02:37:06.128Z,18.90
2019-06-20T02:39:38.347Z,18.90
2019-06-20T02:42:10.662Z,18.85
2019-06-20T02:44:42.856Z,18.86
2019-06-20T02:47:15.160Z,18.84
2019-06-20T02:49:47.358Z,18.86
2019-06-20T02:52:19.583Z,18.81
2019-06-20T02:54:59.059Z,18.80
2019-06-20T02:57:35.332Z,18.78
2019-06-20T03:00:07.540Z,18.74
2019-06-20T03:02:39.780Z,18.72
2019-06-20T03:05:12.004Z,18.71
2019-06-20T03:07:45.010Z,18.71
2019-06-20T03:10:17.458Z,18.72
2019-06-20T03:12:49.724Z,18.74
2019-06-20T03:15:21.922Z,18.72
2019-06-20T03:17:54.188Z,18.69
2019-06-20T03:20:26.402Z,18.72
2019-06-20T03:26:19.288Z,18.81
2019-06-20T03:28:51.770Z,18.87
2019-06-20T03:31:25.139Z,18.87
2019-06-20T03:33:58.401Z,18.85
2019-06-20T03:36:31.671Z,18.85
2019-06-20T03:39:06.250Z,18.88
2019-06-20T03:41:39.099Z,18.87
2019-06-20T03:44:11.726Z,18.81
2019-06-20T03:46:44.131Z,18.80
2019-06-20T03:49:17.085Z,18.78
2019-06-20T03:51:51.650Z,18.75
2019-06-20T03:54:24.284Z,18.74
2019-06-20T03:56:57.329Z,18.78
2019-06-20T03:59:29.854Z,18.86
2019-06-20T04:02:02.413Z,18.83
2019-06-20T04:04:35.219Z,18.79
2019-06-20T04:07:07.689Z,18.79
2019-06-20T04:09:40.997Z,18.76
2019-06-20T04:12:13.926Z,18.73
2019-06-20T04:14:48.989Z,18.76
2019-06-20T04:17:21.990Z,18.75
2019-06-20T04:19:54.993Z,18.71
2019-06-20T04:22:27.757Z,18.82
2019-06-20T04:25:01.097Z,18.83
2019-06-20T04:27:33.862Z,18.76
2019-06-20T04:30:08.437Z,18.69
2019-06-20T04:32:40.984Z,18.61
2019-06-20T04:35:13.748Z,18.55
2019-06-20T04:37:46.376Z,18.57
2019-06-20T04:40:18.937Z,18.55
2019-06-20T04:42:51.682Z,18.57
2019-06-20T04:45:37.868Z,18.55
2019-06-20T04:48:10.505Z,18.62
2019-06-20T04:50:43.371Z,18.62
2019-06-20T04:53:15.978Z,18.56
2019-06-20T04:55:48.536Z,18.59
2019-06-20T04:58:22.004Z,18.65
2019-06-20T05:00:54.510Z,18.63
2019-06-20T05:03:27.104Z,18.59
2019-06-20T05:05:59.890Z,18.52
2019-06-20T05:08:32.447Z,18.56
2019-06-20T05:11:05.005Z,18.60
2019-06-20T05:13:38.023Z,18.60
2019-06-20T05:16:10.702Z,18.60
2019-06-20T05:18:43.415Z,18.69
2019-06-20T05:21:22.303Z,18.74
2019-06-20T05:23:55.364Z,18.72
2019-06-20T05:26:27.837Z,18.78
2019-06-20T05:29:00.875Z,18.82
2019-06-20T05:31:34.131Z,18.91
2019-06-20T05:34:06.820Z,18.92
2019-06-20T05:36:39.838Z,18.93
2019-06-20T05:39:12.385Z,18.93
2019-06-20T05:41:47.294Z,18.93
2019-06-20T05:44:21.185Z,18.97
2019-06-20T05:47:11.198Z,19.01
2019-06-20T05:49:45.023Z,18.97
2019-06-20T05:52:17.642Z,18.95
2019-06-20T05:54:50.748Z,18.91
2019-06-20T05:57:23.551Z,18.92
2019-06-20T05:59:56.173Z,18.98
2019-06-20T06:02:28.891Z,18.99
2019-06-20T06:05:01.720Z,18.97
2019-06-20T06:07:34.865Z,18.94
2019-06-20T06:10:09.048Z,18.96
2019-06-20T06:12:45.240Z,19.04
2019-06-20T06:15:17.777Z,19.00
2019-06-20T06:17:50.663Z,18.98
2019-06-20T06:20:23.232Z,19.05
2019-06-20T06:22:55.801Z,19.09
2019-06-20T06:25:28.794Z,19.06
2019-06-20T06:28:01.542Z,19.07
2019-06-20T06:30:34.502Z,19.03
2019-06-20T06:33:07.471Z,19.04
2019-06-20T06:35:40.356Z,19.06
2019-06-20T06:38:13.423Z,19.00
2019-06-20T06:40:47.158Z,18.96
2019-06-20T06:43:20.379Z,18.92
2019-06-20T06:45:53.713Z,18.99
2019-06-20T06:48:28.142Z,19.11
2019-06-20T06:51:01.389Z,19.12
2019-06-20T06:53:34.473Z,19.15
2019-06-20T06:56:07.971Z,19.20
2019-06-20T06:58:40.757Z,19.25
2019-06-20T07:01:13.665Z,19.30
2019-06-20T07:03:47.486Z,19.34
2019-06-20T07:06:20.657Z,19.36
2019-06-20T07:08:53.507Z,19.35
2019-06-20T07:11:26.839Z,19.45
2019-06-20T07:14:00.051Z,19.59
2019-06-20T07:16:33.210Z,19.70
2019-06-20T07:19:07.772Z,19.77
2019-06-20T07:21:40.780Z,19.77
2019-06-20T07:24:13.867Z,19.90
2019-06-20T07:26:47.199Z,19.88
2019-06-20T07:29:19.957Z,19.90
2019-06-20T07:31:52.985Z,19.86
2019-06-20T07:34:26.376Z,19.91
2019-06-20T07:36:59.237Z,20.00
2019-06-20T07:39:32.785Z,20.16
2019-06-20T07:42:06.367Z,20.41
2019-06-20T07:44:39.237Z,20.61
2019-06-20T07:47:17.549Z,20.67
2019-06-20T07:49:51.739Z,20.75
2019-06-20T07:52:24.039Z,20.80
2019-06-20T07:54:56.297Z,20.88
2019-06-20T07:57:28.634Z,20.97
2019-06-20T08:00:00.911Z,20.99
2019-06-20T08:02:34.778Z,21.03
2019-06-20T08:05:08.792Z,20.88
2019-06-20T08:07:43.743Z,20.79
2019-06-20T08:10:16.941Z,20.85
2019-06-20T08:12:49.332Z,20.92
2019-06-20T08:15:22.585Z,21.00
2019-06-20T08:17:56.089Z,21.10
2019-06-20T08:20:28.490Z,21.20
2019-06-20T08:23:01.790Z,21.19
2019-06-20T08:25:34.137Z,21.27
2019-06-20T08:28:07.193Z,21.23
2019-06-20T08:30:39.432Z,21.15
2019-06-20T08:33:12.371Z,21.09
2019-06-20T08:35:44.875Z,21.08
2019-06-20T08:38:17.651Z,21.12
2019-06-20T08:40:51.820Z,21.31
2019-06-20T08:43:24.107Z,21.41
2019-06-20T08:45:57.770Z,21.37
2019-06-20T08:48:30.204Z,21.35
2019-06-20T08:51:04.537Z,21.37
2019-06-20T08:53:37.013Z,21.41
2019-06-20T08:56:09.327Z,21.50
2019-06-20T08:58:41.691Z,21.45
2019-06-20T09:01:14.285Z,21.39
2019-06-20T09:03:46.647Z,21.44
2019-06-20T09:06:19.031Z,21.49
2019-06-20T09:08:51.414Z,21.62
2019-06-20T09:11:23.735Z,21.72
2019-06-20T09:13:57.226Z,21.67
2019-06-20T09:16:29.665Z,21.81
2019-06-20T09:19:02.616Z,22.06
2019-06-20T09:21:35.239Z,22.12
2019-06-20T09:24:08.485Z,22.17
2019-06-20T09:26:40.850Z,22.19
2019-06-20T09:29:13.125Z,22.26
2019-06-20T09:31:45.383Z,22.26
2019-06-20T09:34:18.330Z,22.27
2019-06-20T09:36:52.170Z,22.38
2019-06-20T09:39:26.723Z,22.28
2019-06-20T09:42:00.042Z,22.17
2019-06-20T09:44:32.322Z,22.32
2019-06-20T09:47:06.219Z,22.66
2019-06-20T09:49:39.116Z,22.98
2019-06-20T09:52:12.348Z,22.97
2019-06-20T09:54:48.465Z,22.94
2019-06-20T09:57:53.734Z,22.98
2019-06-20T10:01:04.117Z,23.27
2019-06-20T10:03:58.253Z,23.54
2019-06-20T10:06:30.557Z,23.77
2019-06-20T10:09:03.857Z,24.04
2019-06-20T10:11:36.417Z,24.38
2019-06-20T10:14:11.063Z,24.53
2019-06-20T10:16:47.225Z,24.33
2019-06-20T10:19:22.480Z,24.05
2019-06-20T10:21:55.951Z,23.72
2019-06-20T10:24:28.528Z,23.52
2019-06-20T10:27:01.042Z,23.42
2019-06-20T10:29:33.373Z,23.40
2019-06-20T10:32:05.773Z,23.65
2019-06-20T10:34:38.527Z,23.94
2019-06-20T10:37:10.960Z,24.27
2019-06-20T10:39:44.522Z,24.74
2019-06-20T10:42:18.050Z,24.97
2019-06-20T10:44:52.203Z,24.59
2019-06-20T10:47:33.592Z,24.40
2019-06-20T10:50:08.393Z,24.62
2019-06-20T10:52:42.059Z,25.14
2019-06-20T10:55:16.610Z,25.37
2019-06-20T10:57:49.799Z,25.25
2019-06-20T11:00:31.516Z,25.36
2019-06-20T11:03:04.370Z,25.47
2019-06-20T11:05:37.375Z,25.52
2019-06-20T11:08:09.816Z,25.11
2019-06-20T11:10:43.460Z,25.03
2019-06-20T11:13:18.019Z,25.22
2019-06-20T11:16:11.613Z,25.54
2019-06-20T11:18:44.459Z,25.72
2019-06-20T11:21:18.333Z,25.83
2019-06-20T11:23:51.320Z,26.12
2019-06-20T11:26:24.909Z,26.29
2019-06-20T11:29:46.468Z,26.27
2019-06-20T11:32:20.068Z,25.73
2019-06-20T11:34:52.725Z,25.26
2019-06-20T11:37:25.393Z,25.04
2019-06-20T11:40:02.849Z,25.04
2019-06-20T11:42:40.062Z,24.88
2019-06-20T11:45:25.820Z,24.66
2019-06-20T11:48:00.171Z,24.60
2019-06-20T11:50:40.020Z,24.37
2019-06-20T11:53:25.799Z,24.28
2019-06-20T11:56:25.591Z,24.36
2019-06-20T11:58:58.999Z,24.28
2019-06-20T12:02:57.476Z,24.27
2019-06-20T12:05:32.201Z,24.41
2019-06-20T12:08:12.677Z,24.49
2019-06-20T12:10:53.957Z,24.59
2019-06-20T12:13:29.733Z,24.46
2019-06-20T12:16:10.238Z,24.46
2019-06-20T12:18:49.459Z,24.38
2019-06-20T12:21:25.567Z,24.19
2019-06-20T12:24:04.367Z,24.03
2019-06-20T12:26:44.551Z,23.83
2019-06-20T12:29:18.576Z,23.73
2019-06-20T12:31:53.890Z,23.78
2019-06-20T12:34:27.295Z,23.91
2019-06-20T12:37:06.953Z,23.81
2019-06-20T12:39:46.419Z,23.92
2019-06-20T12:43:01.470Z,24.10
2019-06-20T12:45:42.852Z,24.25
2019-06-20T12:48:22.525Z,24.35
2019-06-20T12:50:59.381Z,24.40
2019-06-20T12:53:38.692Z,24.34
2019-06-20T12:56:15.473Z,24.26
2019-06-20T12:58:49.404Z,24.10
2019-06-20T13:01:36.852Z,23.71
2019-06-20T13:04:26.791Z,23.41
2019-06-20T13:07:05.435Z,23.26
2019-06-20T13:09:40.750Z,23.20
2019-06-20T13:12:14.815Z,23.21
2019-06-20T13:14:49.587Z,23.28
2019-06-20T13:17:32.650Z,23.33
2019-06-20T13:20:07.693Z,23.38
2019-06-20T13:22:46.439Z,23.39
2019-06-20T13:26:14.829Z,23.37
2019-06-20T13:29:04.778Z,23.25
2019-06-20T13:32:04.235Z,23.07
2019-06-20T13:34:53.813Z,22.97
2019-06-20T13:37:33.601Z,22.85
2019-06-20T13:40:09.385Z,22.74
2019-06-20T13:42:44.268Z,22.70
2019-06-20T13:45:37.261Z,22.64
2019-06-20T13:48:09.576Z,22.64
2019-06-20T13:50:42.291Z,22.64
2019-06-20T13:53:15.871Z,22.69
2019-06-20T13:55:50.700Z,22.73
2019-06-20T13:58:23.089Z,22.67
2019-06-20T14:00:55.831Z,22.61
2019-06-20T14:03:51.740Z,22.52
2019-06-20T14:09:39.010Z,22.36
2019-06-20T14:12:16.277Z,22.38
2019-06-20T14:14:55.718Z,22.47
2019-06-20T14:17:32.950Z,22.54
2019-06-20T14:20:08.348Z,22.64
2019-06-20T14:22:45.717Z,22.72
2019-06-20T14:25:20.460Z,22.67
2019-06-20T14:27:54.644Z,22.72
2019-06-20T14:30:27.590Z,22.61
2019-06-20T14:33:02.085Z,22.39
2019-06-20T14:35:35.446Z,22.21
2019-06-20T14:38:11.924Z,22.21
2019-06-20T14:40:54.529Z,22.11
2019-06-20T14:43:30.243Z,22.06
2019-06-20T14:46:11.076Z,22.07
2019-06-20T14:48:45.541Z,22.05
2019-06-20T14:51:20.236Z,22.01
2019-06-20T14:53:54.560Z,21.85
2019-06-20T14:56:28.027Z,21.78
2019-06-20T14:59:00.497Z,21.78
2019-06-20T15:01:53.661Z,21.79
2019-06-20T15:04:26.636Z,21.78
2019-06-20T15:07:03.598Z,21.76
2019-06-20T15:09:36.088Z,21.80
2019-06-20T15:12:08.520Z,21.78
2019-06-20T15:14:40.863Z,21.60
2019-06-20T15:17:13.228Z,21.54
2019-06-20T15:19:46.679Z,21.27
2019-06-20T15:22:27.810Z,21.10
2019-06-20T15:25:00.105Z,21.03
2019-06-20T15:27:34.576Z,21.08
2019-06-20T15:30:08.429Z,21.11
2019-06-20T15:32:53.352Z,21.15
2019-06-20T15:35:29.372Z,21.16
2019-06-20T15:38:01.829Z,21.28
2019-06-20T15:40:34.393Z,21.38
2019-06-20T15:43:07.294Z,21.40
2019-06-20T15:45:40.990Z,21.32
2019-06-20T15:48:14.720Z,21.33
2019-06-20T15:50:50.563Z,21.37
2019-06-20T15:53:23.570Z,21.31
2019-06-20T15:56:00.327Z,21.33
2019-06-20T15:58:56.036Z,21.38
2019-06-20T16:01:53.123Z,21.36
2019-06-20T16:05:10.770Z,21.28
2019-06-20T16:07:43.950Z,21.24
2019-06-20T16:10:17.950Z,21.26
2019-06-20T16:12:53.174Z,21.31
2019-06-20T16:15:27.100Z,21.43
2019-06-20T16:18:03.800Z,21.61
2019-06-20T16:20:38.962Z,21.52
2019-06-20T16:23:11.465Z,21.51
2019-06-20T16:25:54.343Z,21.60
2019-06-20T16:28:27.402Z,21.70
2019-06-20T16:31:08.712Z,21.75
2019-06-20T16:33:50.199Z,21.77
2019-06-20T16:36:22.839Z,21.75
2019-06-20T16:38:55.554Z,21.76
2019-06-20T16:41:28.298Z,21.79
2019-06-20T16:44:00.674Z,22.04
2019-06-20T16:46:34.659Z,22.24
2019-06-20T16:49:07.215Z,22.28
2019-06-20T16:51:39.818Z,22.32
2019-06-20T16:54:15.412Z,22.22
2019-06-20T16:56:51.272Z,22.09
2019-06-20T16:59:24.506Z,21.83
2019-06-20T17:01:57.993Z,21.74
2019-06-20T17:04:32.311Z,21.76
2019-06-20T17:07:06.633Z,21.93
2019-06-20T17:09:39.792Z,22.04
2019-06-20T17:12:12.517Z,22.09
2019-06-20T17:14:44.914Z,22.21
2019-06-20T17:17:17.429Z,22.15
2019-06-20T17:19:51.836Z,22.07
2019-06-20T17:22:39.616Z,22.04
2019-06-20T17:25:13.621Z,22.02
2019-06-20T17:27:47.848Z,21.98
2019-06-20T17:30:20.405Z,21.91
2019-06-20T17:32:57.044Z,21.85
2019-06-20T17:35:30.068Z,21.74
2019-06-20T17:38:18.843Z,21.59
2019-06-20T17:41:26.451Z,21.57
2019-06-20T17:44:07.960Z,21.44
2019-06-20T17:46:43.356Z,21.32
2019-06-20T17:49:18.041Z,21.22
2019-06-20T17:52:00.227Z,21.20
2019-06-20T17:54:49.512Z,21.24
2019-06-20T17:57:26.095Z,21.18
2019-06-20T18:00:02.113Z,21.19
2019-06-20T18:02:42.224Z,21.20
2019-06-20T18:05:19.405Z,21.24
2019-06-20T18:07:53.044Z,21.25
2019-06-20T18:10:27.460Z,21.24
2019-06-20T18:13:01.508Z,21.14
2019-06-20T18:15:41.179Z,21.01
2019-06-20T18:18:17.125Z,20.85
2019-06-20T18:20:53.552Z,20.81
2019-06-20T18:23:30.835Z,20.80
2019-06-20T18:26:08.329Z,20.80
2019-06-20T18:28:42.703Z,20.88
2019-06-20T18:31:18.726Z,20.95
2019-06-20T18:33:52.790Z,20.92
2019-06-20T18:36:25.264Z,20.91
2019-06-20T18:38:57.706Z,20.92
2019-06-20T18:41:30.103Z,20.91
2019-06-20T18:44:02.396Z,20.90
2019-06-20T18:46:35.617Z,20.86
2019-06-20T18:49:08.187Z,20.84
2019-06-20T18:51:40.569Z,20.81
2019-06-20T18:54:12.921Z,20.80
2019-06-20T18:56:45.279Z,20.75
2019-06-20T18:59:18.380Z,20.59
2019-06-20T19:01:51.037Z,20.45
2019-06-20T19:04:24.193Z,20.43
2019-06-20T19:06:57.547Z,20.50
2019-06-20T19:09:29.928Z,20.45
2019-06-20T19:12:02.427Z,20.31
2019-06-20T19:14:35.713Z,20.30
2019-06-20T19:17:09.588Z,20.18
2019-06-20T19:19:41.935Z,20.09
2019-06-20T19:22:14.852Z,20.08
2019-06-20T19:24:48.069Z,20.12
2019-06-20T19:27:20.618Z,20.18
2019-06-20T19:29:53.036Z,20.23
2019-06-20T19:32:25.400Z,20.21
2019-06-20T19:35:02.236Z,20.14
2019-06-20T19:37:35.166Z,20.12
2019-06-20T19:40:07.695Z,20.14
2019-06-20T19:42:40.169Z,20.17
2019-06-20T19:45:15.373Z,20.15
2019-06-20T19:47:48.476Z,20.12
2019-06-20T19:50:22.089Z,20.16
2019-06-20T19:52:54.493Z,20.23
2019-06-20T19:55:27.528Z,20.22
2019-06-20T19:58:00.764Z,20.17
2019-06-20T20:00:33.202Z,20.22
2019-06-20T20:03:05.840Z,20.14
2019-06-20T20:05:38.148Z,20.06
2019-06-20T20:08:10.512Z,20.00
2019-06-20T20:10:47.190Z,20.02
2019-06-20T20:13:19.571Z,19.93
2019-06-20T20:15:51.931Z,19.86
2019-06-20T20:18:24.259Z,19.78
2019-06-20T20:20:57.379Z,19.73
2019-06-20T20:23:29.722Z,19.70
2019-06-20T20:26:02.014Z,19.67
2019-06-20T20:28:34.288Z,19.63
2019-06-20T20:31:06.698Z,19.62
2019-06-20T20:33:39.908Z,19.60
2019-06-20T20:36:24.489Z,19.59
2019-06-20T20:38:57.780Z,19.55
2019-06-20T20:41:30.195Z,19.52
2019-06-20T20:44:02.543Z,19.45
2019-06-20T20:46:34.989Z,19.42
2019-06-20T20:49:08.910Z,19.39
2019-06-20T20:51:41.224Z,19.35
2019-06-20T20:54:15.495Z,19.29
2019-06-20T20:56:49.062Z,19.26
2019-06-20T20:59:21.388Z,19.24
2019-06-20T21:01:54.717Z,19.18
2019-06-20T21:04:27.110Z,19.22
2019-06-20T21:07:03.890Z,19.16
2019-06-20T21:09:37.479Z,19.07
2019-06-20T21:12:10.714Z,19.05
2019-06-20T21:14:43.091Z,19.02
2019-06-20T21:17:16.095Z,19.13
2019-06-20T21:19:48.479Z,19.07
2019-06-20T21:22:24.583Z,19.06
2019-06-20T21:24:57.454Z,19.00
2019-06-20T21:27:29.785Z,18.95
2019-06-20T21:30:05.529Z,18.93
2019-06-20T21:32:37.777Z,18.89
2019-06-20T21:35:10.207Z,18.85
2019-06-20T21:37:44.533Z,18.87
2019-06-20T21:40:17.026Z,18.79
2019-06-20T21:42:49.440Z,18.70
2019-06-20T21:45:21.979Z,18.61
2019-06-20T21:47:54.865Z,18.53
2019-06-20T21:50:27.912Z,18.44
2019-06-20T21:53:00.189Z,18.38
2019-06-20T21:55:32.496Z,18.31
2019-06-20T21:58:04.776Z,18.28
2019-06-20T22:00:43.157Z,18.25
2019-06-20T22:03:15.480Z,18.23
2019-06-20T22:05:48.955Z,18.17
2019-06-20T22:08:21.221Z,18.09
2019-06-20T22:10:53.537Z,18.01
2019-06-20T22:13:29.788Z,17.98
2019-06-20T22:16:04.822Z,17.97
2019-06-20T22:18:37.114Z,17.96
2019-06-20T22:21:09.343Z,17.94
2019-06-20T22:23:42.148Z,17.93
2019-06-20T22:26:14.429Z,17.93
2019-06-20T22:28:46.738Z,17.94
2019-06-20T22:31:19.093Z,17.93
2019-06-20T22:33:51.360Z,17.92
2019-06-20T22:36:38.746Z,17.89
2019-06-20T22:39:12.349Z,17.88
2019-06-20T22:41:45.530Z,17.88
2019-06-20T22:44:18.032Z,17.89
2019-06-20T22:46:50.423Z,17.88
2019-06-20T22:49:23.294Z,17.86
2019-06-20T22:51:55.545Z,17.84
2019-06-20T22:54:27.796Z,17.82
2019-06-20T22:57:00.068Z,17.77
2019-06-20T22:59:32.329Z,17.75
2019-06-20T23:02:04.584Z,17.69
2019-06-20T23:04:37.368Z,17.63
2019-06-20T23:07:09.671Z,17.70
2019-06-20T23:09:41.905Z,17.64
2019-06-20T23:12:14.112Z,17.61
2019-06-20T23:14:46.337Z,17.55
2019-06-20T23:17:18.550Z,17.51
2019-06-20T23:19:50.784Z,17.50
2019-06-20T23:22:22.999Z,17.52
2019-06-20T23:24:57.116Z,17.52
2019-06-20T23:27:29.452Z,17.50
2019-06-20T23:30:04.692Z,17.53
2019-06-20T23:32:37.299Z,17.62
2019-06-20T23:35:09.642Z,17.63
2019-06-20T23:37:41.921Z,17.60
2019-06-20T23:40:14.132Z,17.67
2019-06-20T23:42:47.195Z,17.63
2019-06-20T23:45:19.488Z,17.60
2019-06-20T23:47:52.468Z,17.69
2019-06-20T23:50:23.916Z,17.70
2019-06-20T23:53:05.161Z,17.61
2019-06-20T23:55:37.379Z,17.59
2019-06-20T23:58:09.607Z,17.45
